createdAt,value
2019-02-23T00:00:51.765Z,5.52
2019-02-23T00:01:51.926Z,5.52
2019-02-23T00:02:51.944Z,5.53
2019-02-23T00:03:52.027Z,5.45
2019-02-23T00:04:52.117Z,5.45
2019-02-23T00:05:52.202Z,5.43
2019-02-23T00:06:52.290Z,5.38
2019-02-23T00:07:52.379Z,5.43
2019-02-23T00:08:52.467Z,5.50
2019-02-23T00:09:52.554Z,5.52
2019-02-23T00:10:52.644Z,5.48
2019-02-23T00:11:52.769Z,5.53
2019-02-23T00:12:52.808Z,5.57
2019-02-23T00:13:52.900Z,5.55
2019-02-23T00:14:52.988Z,5.55
2019-02-23T00:15:53.077Z,5.35
2019-02-23T00:16:53.164Z,5.20
2019-02-23T00:17:53.257Z,5.27
2019-02-23T00:18:53.347Z,5.31
2019-02-23T00:19:53.432Z,5.10
2019-02-23T00:20:53.521Z,5.10
2019-02-23T00:21:53.608Z,5.10
2019-02-23T00:22:53.697Z,5.05
2019-02-23T00:23:53.787Z,4.99
2019-02-23T00:24:53.871Z,4.94
2019-02-23T00:25:53.960Z,4.88
2019-02-23T00:26:54.045Z,4.75
2019-02-23T00:27:54.140Z,4.86
2019-02-23T00:28:54.225Z,4.96
2019-02-23T00:29:54.313Z,4.79
2019-02-23T00:30:54.420Z,4.80
2019-02-23T00:31:54.513Z,4.76
2019-02-23T00:32:54.593Z,4.76
2019-02-23T00:33:54.680Z,4.73
2019-02-23T00:34:54.767Z,4.80
2019-02-23T00:35:54.856Z,4.79
2019-02-23T00:36:54.944Z,4.51
2019-02-23T00:37:55.036Z,4.57
2019-02-23T00:38:55.122Z,4.52
2019-02-23T00:39:55.208Z,4.50
2019-02-23T00:40:55.296Z,4.50
2019-02-23T00:41:55.402Z,4.33
2019-02-23T00:42:55.473Z,4.34
2019-02-23T00:43:55.563Z,4.42
2019-02-23T00:44:55.648Z,4.37
2019-02-23T00:45:55.734Z,4.36
2019-02-23T00:46:55.820Z,4.37
2019-02-23T00:47:55.907Z,4.43
2019-02-23T00:48:55.998Z,4.37
2019-02-23T00:49:56.080Z,4.42
2019-02-23T00:50:56.168Z,4.40
2019-02-23T00:51:56.255Z,4.34
2019-02-23T00:52:56.343Z,4.33
2019-02-23T00:53:56.432Z,4.33
2019-02-23T00:54:56.518Z,4.34
2019-02-23T00:55:56.607Z,4.39
2019-02-23T00:56:56.691Z,4.37
2019-02-23T00:57:56.780Z,4.34
2019-02-23T00:58:56.866Z,4.36
2019-02-23T00:59:56.955Z,4.21
2019-02-23T01:00:57.041Z,4.28
2019-02-23T01:01:57.133Z,4.25
2019-02-23T01:02:57.219Z,4.18
2019-02-23T01:03:57.306Z,4.16
2019-02-23T01:04:57.391Z,4.25
2019-02-23T01:05:57.479Z,4.19
2019-02-23T01:06:57.568Z,4.22
2019-02-23T01:07:57.655Z,4.07
2019-02-23T01:08:57.743Z,4.08
2019-02-23T01:09:57.830Z,4.01
2019-02-23T01:10:58.545Z,3.96
2019-02-23T01:11:58.007Z,3.85
2019-02-23T01:12:58.092Z,3.92
2019-02-23T01:13:58.196Z,3.92
2019-02-23T01:14:58.283Z,4.03
2019-02-23T01:15:58.640Z,3.98
2019-02-23T01:16:58.456Z,3.92
2019-02-23T01:17:58.543Z,4.04
2019-02-23T01:18:58.634Z,4.04
2019-02-23T01:19:58.723Z,3.94
2019-02-23T01:20:58.805Z,4.06
2019-02-23T01:21:58.894Z,3.98
2019-02-23T01:22:58.980Z,3.98
2019-02-23T01:23:59.069Z,4.04
2019-02-23T01:24:59.157Z,4.01
2019-02-23T01:25:59.240Z,3.90
2019-02-23T01:26:59.331Z,3.88
2019-02-23T01:27:59.418Z,3.96
2019-02-23T01:28:59.511Z,3.86
2019-02-23T01:29:59.575Z,3.89
2019-02-23T01:30:59.665Z,3.82
2019-02-23T01:31:59.750Z,3.85
2019-02-23T01:32:59.839Z,3.82
2019-02-23T01:33:59.924Z,3.92
2019-02-23T01:35:00.012Z,3.90
2019-02-23T01:36:00.101Z,3.76
2019-02-23T01:37:00.188Z,3.67
2019-02-23T01:38:00.278Z,3.40
2019-02-23T01:39:00.368Z,3.34
2019-02-23T01:40:00.449Z,3.28
2019-02-23T01:41:00.539Z,3.33
2019-02-23T01:42:00.627Z,3.34
2019-02-23T01:43:00.708Z,3.42
2019-02-23T01:44:00.800Z,3.46
2019-02-23T01:45:00.880Z,3.34
2019-02-23T01:46:00.970Z,3.34
2019-02-23T01:47:01.057Z,3.27
2019-02-23T01:48:01.142Z,3.20
2019-02-23T01:49:01.231Z,3.24
2019-02-23T01:50:01.321Z,3.33
2019-02-23T01:51:01.412Z,3.27
2019-02-23T01:52:01.495Z,3.34
2019-02-23T01:53:01.584Z,3.30
2019-02-23T01:54:01.669Z,3.27
2019-02-23T01:55:01.757Z,3.43
2019-02-23T01:56:01.847Z,3.33
2019-02-23T01:57:01.933Z,3.28
2019-02-23T01:58:02.021Z,3.39
2019-02-23T01:59:02.106Z,3.43
2019-02-23T02:00:02.204Z,3.44
2019-02-23T02:01:02.287Z,3.42
2019-02-23T02:02:02.373Z,3.42
2019-02-23T02:03:02.459Z,3.33
2019-02-23T02:04:02.546Z,3.39
2019-02-23T02:05:02.632Z,3.33
2019-02-23T02:06:02.719Z,3.44
2019-02-23T02:07:02.808Z,3.39
2019-02-23T02:08:02.894Z,3.44
2019-02-23T02:09:02.983Z,3.30
2019-02-23T02:10:03.072Z,3.21
2019-02-23T02:11:03.158Z,3.00
2019-02-23T02:12:03.243Z,2.79
2019-02-23T02:13:03.330Z,2.74
2019-02-23T02:14:03.417Z,2.71
2019-02-23T02:15:03.507Z,2.69
2019-02-23T02:16:03.587Z,2.79
2019-02-23T02:17:03.682Z,2.73
2019-02-23T02:18:03.763Z,2.71
2019-02-23T02:19:03.849Z,2.79
2019-02-23T02:20:11.122Z,2.74
2019-02-23T02:21:04.024Z,2.76
2019-02-23T02:22:04.109Z,2.81
2019-02-23T02:23:04.198Z,2.77
2019-02-23T02:24:04.286Z,2.94
2019-02-23T02:25:04.372Z,2.94
2019-02-23T02:26:04.465Z,2.97
2019-02-23T02:27:04.545Z,2.95
2019-02-23T02:28:04.632Z,2.95
2019-02-23T02:29:04.718Z,2.89
2019-02-23T02:30:04.806Z,2.87
2019-02-23T02:31:04.909Z,2.95
2019-02-23T02:32:04.985Z,2.88
2019-02-23T02:33:05.063Z,2.91
2019-02-23T02:34:05.154Z,2.95
2019-02-23T02:35:05.243Z,2.82
2019-02-23T02:37:47.856Z,2.89
2019-02-23T02:38:47.942Z,2.87
2019-02-23T02:39:48.028Z,2.79
2019-02-23T02:40:48.113Z,2.88
2019-02-23T02:41:48.199Z,2.85
2019-02-23T02:42:48.285Z,2.98
2019-02-23T02:43:48.372Z,2.94
2019-02-23T02:44:48.460Z,2.92
2019-02-23T02:45:48.547Z,2.82
2019-02-23T02:46:48.634Z,2.91
2019-02-23T02:47:48.717Z,2.79
2019-02-23T02:48:48.805Z,2.85
2019-02-23T02:49:48.890Z,2.81
2019-02-23T02:50:48.997Z,2.79
2019-02-23T02:51:49.092Z,2.69
2019-02-23T02:52:49.171Z,2.53
2019-02-23T02:53:49.258Z,2.53
2019-02-23T02:54:49.343Z,2.51
2019-02-23T02:55:49.432Z,2.56
2019-02-23T02:56:49.517Z,2.51
2019-02-23T02:57:49.600Z,2.55
2019-02-23T02:58:49.687Z,2.59
2019-02-23T02:59:49.772Z,2.58
2019-02-23T03:00:49.862Z,2.59
2019-02-23T03:01:49.942Z,2.56
2019-02-23T03:02:50.020Z,2.35
2019-02-23T03:03:50.111Z,2.33
2019-02-23T03:04:50.193Z,2.22
2019-02-23T03:05:50.280Z,2.16
2019-02-23T03:06:50.369Z,2.13
2019-02-23T03:07:50.456Z,2.10
2019-02-23T03:08:50.541Z,2.09
2019-02-23T03:09:50.631Z,2.16
2019-02-23T03:10:50.711Z,2.22
2019-02-23T03:11:50.799Z,2.23
2019-02-23T03:12:50.888Z,2.17
2019-02-23T03:13:50.967Z,2.26
2019-02-23T03:14:51.045Z,2.33
2019-02-23T03:15:51.142Z,2.28
2019-02-23T03:16:51.227Z,2.26
2019-02-23T03:17:51.317Z,2.34
2019-02-23T03:18:51.399Z,2.37
2019-02-23T03:19:51.487Z,2.38
2019-02-23T03:20:51.570Z,2.35
2019-02-23T03:21:51.657Z,2.33
2019-02-23T03:22:51.742Z,2.40
2019-02-23T03:23:51.828Z,2.33
2019-02-23T03:24:51.912Z,2.27
2019-02-23T03:25:52.001Z,2.27
2019-02-23T03:26:52.091Z,2.31
2019-02-23T03:27:52.176Z,2.15
2019-02-23T03:28:52.267Z,2.12
2019-02-23T03:29:52.346Z,2.04
2019-02-23T03:30:52.434Z,2.04
2019-02-23T03:31:52.523Z,1.89
2019-02-23T03:32:52.612Z,1.97
2019-02-23T03:33:52.691Z,1.89
2019-02-23T03:34:52.776Z,1.91
2019-02-23T03:35:52.862Z,1.97
2019-02-23T03:36:52.947Z,1.98
2019-02-23T03:37:53.035Z,2.02
2019-02-23T03:38:53.118Z,2.08
2019-02-23T03:39:53.208Z,2.06
2019-02-23T03:40:53.290Z,2.04
2019-02-23T03:41:53.374Z,2.04
2019-02-23T03:42:53.463Z,2.04
2019-02-23T03:43:53.548Z,2.04
2019-02-23T03:44:53.640Z,2.01
2019-02-23T03:45:53.728Z,2.04
2019-02-23T03:46:53.814Z,1.97
2019-02-23T03:47:53.902Z,1.91
2019-02-23T03:48:53.989Z,1.98
2019-02-23T03:49:54.075Z,1.90
2019-02-23T03:50:54.165Z,1.99
2019-02-23T03:51:54.251Z,1.98
2019-02-23T03:52:54.338Z,1.90
2019-02-23T03:53:54.423Z,1.89
2019-02-23T03:54:54.508Z,1.91
2019-02-23T03:55:54.596Z,1.91
2019-02-23T03:56:54.679Z,1.90
2019-02-23T03:57:54.769Z,1.83
2019-02-23T03:58:54.856Z,1.80
2019-02-23T03:59:54.941Z,1.91
2019-02-23T04:00:55.026Z,1.91
2019-02-23T04:01:55.110Z,1.87
2019-02-23T04:02:55.196Z,1.85
2019-02-23T04:03:55.282Z,1.82
2019-02-23T04:04:55.368Z,1.93
2019-02-23T04:05:55.456Z,1.87
2019-02-23T04:06:55.541Z,1.89
2019-02-23T04:07:55.629Z,1.94
2019-02-23T04:08:55.714Z,1.93
2019-02-23T04:09:55.799Z,1.93
2019-02-23T04:10:55.884Z,1.87
2019-02-23T04:11:55.968Z,1.85
2019-02-23T04:12:56.053Z,1.93
2019-02-23T04:13:56.139Z,1.78
2019-02-23T04:14:56.221Z,1.55
2019-02-23T04:15:56.307Z,1.42
2019-02-23T04:16:56.391Z,1.36
2019-02-23T04:17:56.476Z,1.40
2019-02-23T04:18:56.574Z,1.40
2019-02-23T04:19:56.646Z,1.36
2019-02-23T04:21:01.698Z,1.58
2019-02-23T04:22:05.460Z,1.44
2019-02-23T04:22:56.924Z,1.55
2019-02-23T04:23:57.009Z,1.58
2019-02-23T04:24:57.093Z,1.55
2019-02-23T04:25:57.182Z,1.61
2019-02-23T04:26:57.267Z,1.55
2019-02-23T04:27:57.363Z,1.54
2019-02-23T04:28:57.437Z,1.55
2019-02-23T04:29:57.521Z,1.62
2019-02-23T04:30:57.612Z,1.58
2019-02-23T04:31:57.698Z,1.51
2019-02-23T04:32:57.782Z,1.34
2019-02-23T04:33:57.867Z,1.50
2019-02-23T04:34:57.951Z,1.43
2019-02-23T04:35:58.109Z,1.36
2019-02-23T04:36:58.122Z,1.43
2019-02-23T04:37:58.205Z,1.57
2019-02-23T04:38:58.292Z,1.55
2019-02-23T04:39:58.372Z,1.55
2019-02-23T04:40:58.463Z,1.60
2019-02-23T04:41:58.539Z,1.57
2019-02-23T04:42:58.624Z,1.58
2019-02-23T04:43:58.710Z,1.62
2019-02-23T04:44:58.797Z,1.55
2019-02-23T04:45:58.883Z,1.60
2019-02-23T04:46:58.968Z,1.50
2019-02-23T04:47:59.057Z,1.52
2019-02-23T04:48:59.139Z,1.52
2019-02-23T04:49:59.225Z,1.50
2019-02-23T04:50:59.308Z,1.39
2019-02-23T04:51:59.391Z,1.40
2019-02-23T04:52:59.475Z,1.50
2019-02-23T04:53:59.563Z,1.47
2019-02-23T04:54:59.647Z,1.52
2019-02-23T04:55:59.736Z,1.47
2019-02-23T04:56:59.819Z,1.46
2019-02-23T04:57:59.901Z,1.51
2019-02-23T04:58:59.994Z,1.46
2019-02-23T05:00:00.101Z,1.60
2019-02-23T05:01:00.174Z,1.54
2019-02-23T05:02:00.259Z,1.52
2019-02-23T05:03:00.337Z,1.52
2019-02-23T05:04:00.417Z,1.43
2019-02-23T05:05:00.500Z,1.44
2019-02-23T05:06:00.588Z,1.43
2019-02-23T05:07:00.670Z,1.43
2019-02-23T05:08:00.755Z,1.42
2019-02-23T05:09:00.905Z,1.40
2019-02-23T05:10:00.924Z,1.37
2019-02-23T05:11:01.008Z,1.42
2019-02-23T05:12:01.095Z,1.26
2019-02-23T05:13:01.182Z,1.42
2019-02-23T05:14:01.269Z,1.39
2019-02-23T05:15:01.356Z,1.32
2019-02-23T05:16:01.438Z,1.36
2019-02-23T05:17:01.526Z,1.28
2019-02-23T05:18:01.610Z,1.40
2019-02-23T05:19:01.692Z,1.37
2019-02-23T05:20:01.782Z,1.36
2019-02-23T05:21:01.872Z,1.26
2019-02-23T05:22:01.949Z,1.34
2019-02-23T05:23:02.044Z,1.40
2019-02-23T05:24:02.129Z,1.32
2019-02-23T05:25:02.211Z,1.26
2019-02-23T05:26:02.297Z,1.29
2019-02-23T05:27:02.385Z,1.25
2019-02-23T05:28:02.470Z,1.25
2019-02-23T05:29:02.557Z,1.21
2019-02-23T05:30:02.641Z,1.15
2019-02-23T05:31:02.728Z,1.14
2019-02-23T05:32:02.811Z,1.07
2019-02-23T05:33:02.898Z,1.12
2019-02-23T05:34:02.977Z,1.15
2019-02-23T05:35:03.074Z,1.15
2019-02-23T05:36:03.157Z,1.16
2019-02-23T05:37:03.243Z,1.21
2019-02-23T05:38:03.326Z,1.12
2019-02-23T05:39:03.412Z,1.15
2019-02-23T05:40:03.493Z,1.19
2019-02-23T05:41:03.590Z,1.12
2019-02-23T05:42:03.669Z,1.18
2019-02-23T05:43:03.759Z,1.22
2019-02-23T05:44:03.847Z,1.04
2019-02-23T05:45:03.938Z,1.22
2019-02-23T05:46:04.019Z,1.24
2019-02-23T05:47:04.103Z,1.12
2019-02-23T05:48:04.189Z,1.04
2019-02-23T05:49:04.274Z,0.98
2019-02-23T05:50:04.362Z,0.96
2019-02-23T05:51:04.449Z,0.98
2019-02-23T05:52:04.536Z,1.08
2019-02-23T05:53:04.624Z,1.07
2019-02-23T05:54:04.707Z,0.80
2019-02-23T05:55:04.792Z,0.76
2019-02-23T05:56:04.878Z,0.52
2019-02-23T05:57:04.963Z,0.57
2019-02-23T05:58:05.052Z,0.62
2019-02-23T05:59:05.130Z,0.67
2019-02-23T06:00:05.215Z,0.72
2019-02-23T06:01:05.301Z,0.71
2019-02-23T06:02:05.387Z,0.76
2019-02-23T06:03:05.473Z,0.72
2019-02-23T06:04:05.561Z,0.82
2019-02-23T06:05:05.648Z,0.88
2019-02-23T06:06:05.731Z,0.83
2019-02-23T06:07:05.816Z,0.83
2019-02-23T06:08:05.905Z,0.89
2019-02-23T06:09:05.988Z,0.85
2019-02-23T06:10:06.071Z,0.83
2019-02-23T06:11:06.163Z,0.82
2019-02-23T06:12:06.251Z,0.79
2019-02-23T06:13:06.334Z,0.72
2019-02-23T06:14:06.415Z,0.82
2019-02-23T06:15:06.504Z,0.82
2019-02-23T06:16:06.586Z,0.86
2019-02-23T06:17:06.677Z,0.83
2019-02-23T06:18:06.760Z,0.82
2019-02-23T06:19:06.846Z,0.92
2019-02-23T06:20:06.931Z,0.85
2019-02-23T06:21:07.019Z,0.88
2019-02-23T06:22:07.102Z,0.89
2019-02-23T06:23:07.190Z,0.98
2019-02-23T06:24:07.278Z,0.97
2019-02-23T06:25:07.363Z,0.90
2019-02-23T06:26:07.456Z,0.92
2019-02-23T06:27:07.534Z,0.96
2019-02-23T06:28:07.649Z,0.98
2019-02-23T06:29:07.721Z,1.06
2019-02-23T06:30:07.810Z,1.01
2019-02-23T06:31:07.896Z,1.06
2019-02-23T06:32:07.993Z,1.08
2019-02-23T06:33:08.085Z,0.83
2019-02-23T06:34:16.126Z,0.86
2019-02-23T06:35:08.249Z,0.85
2019-02-23T06:36:08.336Z,0.80
2019-02-23T06:37:08.421Z,0.89
2019-02-23T06:38:08.504Z,0.90
2019-02-23T06:39:08.597Z,0.79
2019-02-23T06:40:08.681Z,0.83
2019-02-23T06:41:08.769Z,0.72
2019-02-23T06:42:08.852Z,0.82
2019-02-23T06:43:08.939Z,0.88
2019-02-23T06:44:09.026Z,0.89
2019-02-23T06:45:09.122Z,0.98
2019-02-23T06:46:09.200Z,1.01
2019-02-23T06:47:09.285Z,0.98
2019-02-23T06:48:09.373Z,1.12
2019-02-23T06:49:09.457Z,1.18
2019-02-23T06:50:09.609Z,1.15
2019-02-23T06:51:09.612Z,1.18
2019-02-23T06:52:09.702Z,1.24
2019-02-23T06:53:09.783Z,1.19
2019-02-23T06:54:09.870Z,1.26
2019-02-23T06:55:09.957Z,1.28
2019-02-23T06:56:10.042Z,1.33
2019-02-23T06:57:10.130Z,1.33
2019-02-23T06:58:10.215Z,1.26
2019-02-23T06:59:10.303Z,1.14
2019-02-23T07:00:10.390Z,1.08
2019-02-23T07:01:10.475Z,1.04
2019-02-23T07:02:10.565Z,1.04
2019-02-23T07:03:10.648Z,1.08
2019-02-23T07:04:10.732Z,1.12
2019-02-23T07:05:10.880Z,1.08
2019-02-23T07:06:10.931Z,1.24
2019-02-23T07:07:10.992Z,1.33
2019-02-23T07:08:11.105Z,1.33
2019-02-23T07:09:11.164Z,1.33
2019-02-23T07:10:11.253Z,1.33
2019-02-23T07:11:11.332Z,1.39
2019-02-23T07:12:11.418Z,1.43
2019-02-23T07:13:11.502Z,1.52
2019-02-23T07:14:11.591Z,1.47
2019-02-23T07:15:11.683Z,1.50
2019-02-23T07:16:11.763Z,1.42
2019-02-23T07:17:11.844Z,1.46
2019-02-23T07:18:11.926Z,1.62
2019-02-23T07:19:12.013Z,1.60
2019-02-23T07:20:12.101Z,1.75
2019-02-23T07:21:12.186Z,1.80
2019-02-23T07:22:15.448Z,1.76
2019-02-23T07:23:12.423Z,1.79
2019-02-23T07:24:12.442Z,1.78
2019-02-23T07:25:12.526Z,1.89
2019-02-23T07:26:12.618Z,1.85
2019-02-23T07:27:12.703Z,1.87
2019-02-23T07:28:12.782Z,1.87
2019-02-23T07:29:12.973Z,1.91
2019-02-23T07:30:13.111Z,2.02
2019-02-23T07:31:13.124Z,2.06
2019-02-23T07:32:13.211Z,1.99
2019-02-23T07:33:13.296Z,2.08
2019-02-23T07:34:13.383Z,2.09
2019-02-23T07:35:13.465Z,2.12
2019-02-23T07:36:13.560Z,2.12
2019-02-23T07:37:13.646Z,2.22
2019-02-23T07:38:13.728Z,2.16
2019-02-23T07:39:13.849Z,2.35
2019-02-23T07:40:13.934Z,2.38
2019-02-23T07:41:14.020Z,2.30
2019-02-23T07:42:14.107Z,2.46
2019-02-23T07:43:14.193Z,2.40
2019-02-23T07:44:14.278Z,2.59
2019-02-23T07:45:14.364Z,2.45
2019-02-23T07:46:14.459Z,2.49
2019-02-23T07:47:14.543Z,2.58
2019-02-23T07:48:15.490Z,2.59
2019-02-23T07:49:14.718Z,2.67
2019-02-23T07:50:14.797Z,2.70
2019-02-23T07:51:14.882Z,2.69
2019-02-23T07:52:25.688Z,2.64
2019-02-23T07:53:15.050Z,2.82
2019-02-23T07:54:15.137Z,2.79
2019-02-23T07:55:15.232Z,2.84
2019-02-23T07:56:15.348Z,2.89
2019-02-23T07:57:15.435Z,2.87
2019-02-23T07:58:15.523Z,2.95
2019-02-23T07:59:15.610Z,3.05
2019-02-23T08:00:15.697Z,3.02
2019-02-23T08:01:15.786Z,3.09
2019-02-23T08:02:15.891Z,3.09
2019-02-23T08:03:15.982Z,3.21
2019-02-23T08:04:16.068Z,3.20
2019-02-23T08:05:16.154Z,3.18
2019-02-23T08:06:16.244Z,3.33
2019-02-23T08:07:16.328Z,3.25
2019-02-23T08:08:16.413Z,3.31
2019-02-23T08:09:16.501Z,3.36
2019-02-23T08:10:16.591Z,3.39
2019-02-23T08:11:16.672Z,3.52
2019-02-23T08:12:16.760Z,3.44
2019-02-23T08:13:16.839Z,3.42
2019-02-23T08:14:16.922Z,3.42
2019-02-23T08:15:17.009Z,3.42
2019-02-23T08:16:17.098Z,3.60
2019-02-23T08:17:17.187Z,3.49
2019-02-23T08:18:17.275Z,3.52
2019-02-23T08:19:17.353Z,3.42
2019-02-23T08:20:17.436Z,3.62
2019-02-23T08:21:17.514Z,3.61
2019-02-23T08:22:17.595Z,3.62
2019-02-23T08:23:17.686Z,3.65
2019-02-23T08:24:17.774Z,3.82
2019-02-23T08:25:17.932Z,3.72
2019-02-23T08:26:17.945Z,3.75
2019-02-23T08:27:18.032Z,3.67
2019-02-23T08:28:18.122Z,3.75
2019-02-23T08:29:18.218Z,3.76
2019-02-23T08:30:18.297Z,3.90
2019-02-23T08:31:18.395Z,3.94
2019-02-23T08:32:18.477Z,3.90
2019-02-23T08:33:18.565Z,3.94
2019-02-23T08:34:18.655Z,3.90
2019-02-23T08:35:18.744Z,3.92
2019-02-23T08:36:18.835Z,4.03
2019-02-23T08:37:18.922Z,4.16
2019-02-23T08:38:19.011Z,4.12
2019-02-23T08:39:19.104Z,4.06
2019-02-23T08:40:19.190Z,4.12
2019-02-23T08:41:19.281Z,4.15
2019-02-23T08:42:19.364Z,4.26
2019-02-23T08:43:20.825Z,4.22
2019-02-23T08:44:19.543Z,4.01
2019-02-23T08:45:19.636Z,4.12
2019-02-23T08:46:19.720Z,4.08
2019-02-23T08:47:19.808Z,4.25
2019-02-23T08:48:19.907Z,4.28
2019-02-23T08:49:19.985Z,4.43
2019-02-23T08:50:20.070Z,4.39
2019-02-23T08:51:20.167Z,4.55
2019-02-23T08:52:20.250Z,4.61
2019-02-23T08:53:20.334Z,4.54
2019-02-23T08:54:20.422Z,4.65
2019-02-23T08:55:20.512Z,4.64
2019-02-23T08:56:20.600Z,4.76
2019-02-23T08:57:20.686Z,4.65
2019-02-23T08:58:20.778Z,4.73
2019-02-23T08:59:20.868Z,4.76
2019-02-23T09:00:20.959Z,4.77
2019-02-23T09:01:21.045Z,4.76
2019-02-23T09:02:21.134Z,4.83
2019-02-23T09:03:21.221Z,4.99
2019-02-23T09:04:21.309Z,4.84
2019-02-23T09:05:21.397Z,4.99
2019-02-23T09:06:21.492Z,4.99
2019-02-23T09:07:21.574Z,4.88
2019-02-23T09:08:21.664Z,4.92
2019-02-23T09:09:21.753Z,4.95
2019-02-23T09:10:21.841Z,4.94
2019-02-23T09:11:21.925Z,4.88
2019-02-23T09:12:22.017Z,4.99
2019-02-23T09:13:22.104Z,4.99
2019-02-23T09:14:22.194Z,5.10
2019-02-23T09:15:22.473Z,5.22
2019-02-23T09:16:22.372Z,5.23
2019-02-23T09:17:22.459Z,5.32
2019-02-23T09:18:22.553Z,5.35
2019-02-23T09:19:22.634Z,5.53
2019-02-23T09:20:29.211Z,5.55
2019-02-23T09:21:22.820Z,5.60
2019-02-23T09:22:22.909Z,5.63
2019-02-23T09:23:23.000Z,5.53
2019-02-23T09:24:23.094Z,5.64
2019-02-23T09:25:23.183Z,5.56
2019-02-23T09:26:23.269Z,5.49
2019-02-23T09:27:23.363Z,5.66
2019-02-23T09:28:23.442Z,5.71
2019-02-23T09:29:23.715Z,5.73
2019-02-23T09:30:23.587Z,5.75
2019-02-23T09:31:23.676Z,5.83
2019-02-23T09:32:23.762Z,5.81
2019-02-23T09:33:23.850Z,5.59
2019-02-23T09:34:23.940Z,5.82
2019-02-23T09:35:24.031Z,5.81
2019-02-23T09:36:24.119Z,5.78
2019-02-23T09:37:24.208Z,5.89
2019-02-23T09:38:24.296Z,5.92
2019-02-23T09:39:24.389Z,5.98
2019-02-23T09:40:24.476Z,6.04
2019-02-23T09:41:24.567Z,6.09
2019-02-23T09:42:24.655Z,6.09
2019-02-23T09:43:24.742Z,6.11
2019-02-23T09:44:24.832Z,6.14
2019-02-23T09:45:24.924Z,6.36
2019-02-23T09:46:25.013Z,6.36
2019-02-23T09:47:25.100Z,6.35
2019-02-23T09:48:25.189Z,6.26
2019-02-23T09:49:25.287Z,6.18
2019-02-23T09:50:25.369Z,6.29
2019-02-23T09:51:25.458Z,6.28
2019-02-23T09:52:25.548Z,6.38
2019-02-23T09:53:25.638Z,6.43
2019-02-23T09:54:25.724Z,6.47
2019-02-23T09:55:25.831Z,6.47
2019-02-23T09:56:25.921Z,6.58
2019-02-23T09:57:26.008Z,6.65
2019-02-23T09:58:26.102Z,6.69
2019-02-23T09:59:26.191Z,6.72
2019-02-23T10:00:26.281Z,6.71
2019-02-23T10:01:26.367Z,6.81
2019-02-23T10:02:26.456Z,6.90
2019-02-23T10:03:26.545Z,6.89
2019-02-23T10:04:26.628Z,6.89
2019-02-23T10:05:26.718Z,6.77
2019-02-23T10:06:26.806Z,6.91
2019-02-23T10:07:26.896Z,6.91
2019-02-23T10:08:26.986Z,6.94
2019-02-23T10:09:27.076Z,7.01
2019-02-23T10:10:27.168Z,7.01
2019-02-23T10:11:27.254Z,7.09
2019-02-23T10:12:27.345Z,7.15
2019-02-23T10:13:27.437Z,7.12
2019-02-23T10:14:27.525Z,7.07
2019-02-23T10:15:27.616Z,7.19
2019-02-23T10:16:27.726Z,7.23
2019-02-23T10:17:27.817Z,7.32
2019-02-23T10:18:27.907Z,7.26
2019-02-23T10:19:27.995Z,7.27
2019-02-23T10:20:28.090Z,7.35
2019-02-23T10:21:28.182Z,7.37
2019-02-23T10:22:39.414Z,7.52
2019-02-23T10:23:28.408Z,7.45
2019-02-23T10:24:28.500Z,7.55
2019-02-23T10:25:28.587Z,7.42
2019-02-23T10:26:28.674Z,7.52
2019-02-23T10:27:28.765Z,7.63
2019-02-23T10:28:28.852Z,7.62
2019-02-23T10:29:28.939Z,7.78
2019-02-23T10:30:29.032Z,7.75
2019-02-23T10:31:29.119Z,7.81
2019-02-23T10:32:29.211Z,7.81
2019-02-23T10:33:29.300Z,7.81
2019-02-23T10:34:29.389Z,8.00
2019-02-23T10:35:29.483Z,8.03
2019-02-23T10:36:29.572Z,8.00
2019-02-23T10:37:29.668Z,8.04
2019-02-23T10:38:29.747Z,8.14
2019-02-23T10:39:29.844Z,8.12
2019-02-23T10:40:29.935Z,8.18
2019-02-23T10:41:30.028Z,8.15
2019-02-23T10:42:30.117Z,8.12
2019-02-23T10:43:30.204Z,8.17
2019-02-23T10:44:30.316Z,8.11
2019-02-23T10:45:30.397Z,8.20
2019-02-23T10:46:30.485Z,8.22
2019-02-23T10:47:30.575Z,8.00
2019-02-23T10:48:30.663Z,8.11
2019-02-23T10:49:30.754Z,8.15
2019-02-23T10:50:30.842Z,8.28
2019-02-23T10:51:30.932Z,8.22
2019-02-23T10:52:31.021Z,8.37
2019-02-23T10:53:33.049Z,8.42
2019-02-23T10:54:31.207Z,8.50
2019-02-23T10:55:31.294Z,8.47
2019-02-23T10:56:31.380Z,8.58
2019-02-23T10:57:31.466Z,8.53
2019-02-23T10:58:31.553Z,8.50
2019-02-23T10:59:31.649Z,8.51
2019-02-23T11:00:31.735Z,8.68
2019-02-23T11:01:31.825Z,8.66
2019-02-23T11:02:31.915Z,8.71
2019-02-23T11:03:32.055Z,8.86
2019-02-23T11:04:32.089Z,8.91
2019-02-23T11:05:32.181Z,8.71
2019-02-23T11:06:32.273Z,8.78
2019-02-23T11:07:32.363Z,8.86
2019-02-23T11:08:32.455Z,8.88
2019-02-23T11:09:32.563Z,8.91
2019-02-23T11:10:32.654Z,8.84
2019-02-23T11:11:32.744Z,8.88
2019-02-23T11:12:32.836Z,9.01
2019-02-23T11:13:32.926Z,8.91
2019-02-23T11:14:33.017Z,9.09
2019-02-23T11:15:33.116Z,9.05
2019-02-23T11:16:33.198Z,9.02
2019-02-23T11:17:33.286Z,9.09
2019-02-23T11:18:33.373Z,9.06
2019-02-23T11:19:33.465Z,9.27
2019-02-23T11:20:33.555Z,9.28
2019-02-23T11:21:33.648Z,9.32
2019-02-23T11:22:33.730Z,9.35
2019-02-23T11:23:43.458Z,9.34
2019-02-23T11:24:33.908Z,9.50
2019-02-23T11:25:33.999Z,9.58
2019-02-23T11:26:34.090Z,9.63
2019-02-23T11:27:34.184Z,9.68
2019-02-23T11:28:34.272Z,9.75
2019-02-23T11:29:34.363Z,9.67
2019-02-23T11:30:34.457Z,9.73
2019-02-23T11:31:34.550Z,9.86
2019-02-23T11:32:34.644Z,9.89
2019-02-23T11:33:34.726Z,9.85
2019-02-23T11:34:34.825Z,9.85
2019-02-23T11:35:34.907Z,9.66
2019-02-23T11:36:35.001Z,9.75
2019-02-23T11:37:35.092Z,9.68
2019-02-23T11:38:35.184Z,9.67
2019-02-23T11:39:35.272Z,9.71
2019-02-23T11:40:35.365Z,9.85
2019-02-23T11:41:35.446Z,9.83
2019-02-23T11:42:35.544Z,9.86
2019-02-23T11:43:35.637Z,9.93
2019-02-23T11:44:35.729Z,10.00
2019-02-23T11:45:35.822Z,10.01
2019-02-23T11:46:35.908Z,10.00
2019-02-23T11:47:36.000Z,9.91
2019-02-23T11:48:36.094Z,10.03
2019-02-23T11:49:36.182Z,10.04
2019-02-23T11:50:36.273Z,10.10
2019-02-23T11:51:36.376Z,10.04
2019-02-23T11:52:36.460Z,10.15
2019-02-23T11:53:36.553Z,10.12
2019-02-23T11:54:36.648Z,10.09
2019-02-23T11:55:36.735Z,10.03
2019-02-23T11:56:36.827Z,10.10
2019-02-23T11:57:36.924Z,10.10
2019-02-23T11:58:37.016Z,10.14
2019-02-23T11:59:37.115Z,10.21
2019-02-23T12:00:37.193Z,10.30
2019-02-23T12:01:37.276Z,10.30
2019-02-23T12:02:37.368Z,10.28
2019-02-23T12:03:37.461Z,10.39
2019-02-23T12:04:37.553Z,10.39
2019-02-23T12:05:37.642Z,10.37
2019-02-23T12:06:37.737Z,10.39
2019-02-23T12:07:37.828Z,10.44
2019-02-23T12:08:37.922Z,10.40
2019-02-23T12:09:38.018Z,10.58
2019-02-23T12:10:38.111Z,10.63
2019-02-23T12:11:38.196Z,10.65
2019-02-23T12:12:38.293Z,10.43
2019-02-23T12:13:38.387Z,10.52
2019-02-23T12:14:38.497Z,10.62
2019-02-23T12:15:38.591Z,10.47
2019-02-23T12:16:38.683Z,10.51
2019-02-23T12:17:39.757Z,10.33
2019-02-23T12:18:39.026Z,10.04
2019-02-23T12:19:39.262Z,10.09
2019-02-23T12:20:39.060Z,9.99
2019-02-23T12:21:39.156Z,10.00
2019-02-23T12:22:39.432Z,10.26
2019-02-23T12:23:39.344Z,10.32
2019-02-23T12:24:39.437Z,10.32
2019-02-23T12:25:39.527Z,10.36
2019-02-23T12:26:39.617Z,10.51
2019-02-23T12:27:39.713Z,10.43
2019-02-23T12:28:39.801Z,10.42
2019-02-23T12:29:39.896Z,10.36
2019-02-23T12:30:39.988Z,10.44
2019-02-23T12:31:40.080Z,10.43
2019-02-23T12:32:40.180Z,10.51
2019-02-23T12:33:40.270Z,10.51
2019-02-23T12:34:40.355Z,10.60
2019-02-23T12:35:40.447Z,10.62
2019-02-23T12:36:40.542Z,10.65
2019-02-23T12:37:40.632Z,10.63
2019-02-23T12:38:40.726Z,10.65
2019-02-23T12:39:40.820Z,10.70
2019-02-23T12:40:40.910Z,10.62
2019-02-23T12:41:41.007Z,10.63
2019-02-23T12:42:41.097Z,10.66
2019-02-23T12:43:41.191Z,10.68
2019-02-23T12:44:41.280Z,10.71
2019-02-23T12:45:41.373Z,10.88
2019-02-23T12:46:41.466Z,10.91
2019-02-23T12:47:41.557Z,10.96
2019-02-23T12:48:41.655Z,11.01
2019-02-23T12:49:41.763Z,11.10
2019-02-23T12:50:41.853Z,11.20
2019-02-23T12:51:41.941Z,11.09
2019-02-23T12:52:42.040Z,11.11
2019-02-23T12:53:42.132Z,11.21
2019-02-23T12:54:42.222Z,11.24
2019-02-23T12:55:42.315Z,11.20
2019-02-23T12:56:42.411Z,11.16
2019-02-23T12:57:42.507Z,11.16
2019-02-23T12:58:42.593Z,11.27
2019-02-23T12:59:42.688Z,11.24
2019-02-23T13:00:42.784Z,11.25
2019-02-23T13:01:42.876Z,11.28
2019-02-23T13:02:42.968Z,11.31
2019-02-23T13:03:43.060Z,11.24
2019-02-23T13:04:43.152Z,11.24
2019-02-23T13:05:43.245Z,11.25
2019-02-23T13:06:43.336Z,11.21
2019-02-23T13:07:43.429Z,10.98
2019-02-23T13:08:43.524Z,11.20
2019-02-23T13:09:43.693Z,11.19
2019-02-23T13:10:43.710Z,11.21
2019-02-23T13:11:43.804Z,11.25
2019-02-23T13:12:43.894Z,11.03
2019-02-23T13:13:43.989Z,10.95
2019-02-23T13:14:44.081Z,10.99
2019-02-23T13:15:44.173Z,11.02
2019-02-23T13:16:44.276Z,11.16
2019-02-23T13:17:44.365Z,11.21
2019-02-23T13:18:44.468Z,11.20